Private Wetterstation Wechselburg
Wetterdaten: Woche 17.10.11 - 23.10.11 (KW42)
Datum Zeit Temp. +2m Bodentemp. Temp.+5cm Temp. Wind Windchill X Diff Temp. Feuchte +2m Feuchte +5cm Sonnenschein Luftdruck Regen Wind Richtung Sonnenschein UV Taupunkt Windchill Windben
17.10.2011 00:00 2,8 C 13,5 C 4,0 C 2,5 C 1,7 C 0,0 C 86 % 85 % 0 % 1026,3 hPa 0,0 l/m 0,1 km/h (0 Bft) N 0,00 h 0,0 UV-I 0,7 C 1,7 C 0,2 km/h (0 Bft)
17.10.2011 01:00 2,3 C 13,6 C 3,2 C 1,9 C 1,1 C 0,0 C 88 % 87 % 0 % 1026,3 hPa 0,0 l/m 0,1 km/h (0 Bft) N 0,00 h 0,0 UV-I 0,4 C 1,1 C 0,4 km/h (0 Bft)
17.10.2011 02:00 1,5 C 13,4 C 2,9 C 1,0 C 0,2 C 0,0 C 88 % 88 % 0 % 1026,0 hPa 0,0 l/m 0,0 km/h (0 Bft) N 0,00 h 0,0 UV-I -0,3 C 0,2 C 0,0 km/h (0 Bft)
17.10.2011 03:00 1,0 C 13,4 C 2,4 C 0,6 C -0,2 C 0,0 C 89 % 88 % 0 % 1026,0 hPa 0,0 l/m 0,0 km/h (0 Bft) N 0,00 h 0,0 UV-I -0,6 C -0,2 C 0,1 km/h (0 Bft)
17.10.2011 04:00 0,4 C 13,3 C 2,0 C 0,0 C -0,8 C 0,0 C 89 % 88 % 0 % 1025,8 hPa 0,0 l/m 0,1 km/h (0 Bft) N 0,00 h 0,0 UV-I -1,2 C -0,8 C 0,0 km/h (0 Bft)
17.10.2011 05:00 -0,1 C 13,1 C 1,7 C -0,4 C -1,2 C 0,0 C 90 % 89 % 0 % 1025,6 hPa 0,0 l/m 0,0 km/h (0 Bft) N 0,00 h 0,0 UV-I -1,5 C -1,2 C 0,0 km/h (0 Bft)
17.10.2011 06:00 -0,4 C 13,1 C 1,5 C -0,7 C -1,5 C 0,0 C 90 % 89 % 0 % 1025,7 hPa 0,0 l/m 0,0 km/h (0 Bft) N 0,00 h 0,0 UV-I -1,8 C -1,5 C 0,0 km/h (0 Bft)
17.10.2011 07:00 -0,9 C 12,9 C 1,1 C -1,2 C -1,9 C 0,0 C 90 % 89 % 0 % 1025,4 hPa 0,0 l/m 0,0 km/h (0 Bft) N 0,00 h 0,0 UV-I -2,3 C -1,9 C 0,0 km/h (0 Bft)
17.10.2011 08:00 -0,7 C 12,8 C 1,1 C -0,9 C -1,2 C 0,0 C 91 % 90 % 0 % 1025,9 hPa 0,0 l/m 0,1 km/h (0 Bft) N 0,00 h 0,0 UV-I -2,0 C -1,2 C 0,5 km/h (0 Bft)
17.10.2011 09:00 0,5 C 12,6 C 2,2 C 1,0 C 1,0 C 0,5 C 92 % 91 % 13 % 1026,0 hPa 0,0 l/m 0,5 km/h (0 Bft) SW 0,00 h 0,0 UV-I -0,6 C 1,0 C 1,0 km/h (0 Bft)
17.10.2011 10:00 3,0 C 12,4 C 4,5 C 4,6 C 4,6 C 1,6 C 93 % 89 % 43 % 1025,5 hPa 0,0 l/m 1,0 km/h (0 Bft) S-SW 0,00 h 0,0 UV-I 1,9 C 4,6 C 1,8 km/h (1 Bft)
17.10.2011 11:00 7,0 C 12,3 C 7,2 C 9,2 C 9,2 C 2,2 C 83 % 80 % 58 % 1025,5 hPa 0,0 l/m 1,5 km/h (1 Bft) W-SW 0,00 h 0,0 UV-I 4,3 C 9,2 C 3,4 km/h (1 Bft)
17.10.2011 12:00 10,6 C 12,3 C 9,4 C 15,2 C 15,2 C 4,6 C 63 % 69 % 86 % 1025,2 hPa 0,0 l/m 3,8 km/h (1 Bft) SW 0,67 h 0,0 UV-I 3,9 C 15,2 C 7,2 km/h (2 Bft)
17.10.2011 13:00 12,3 C 12,4 C 10,8 C 19,0 C 19,0 C 6,8 C 62 % 70 % 100 % 1024,8 hPa 0,0 l/m 2,2 km/h (1 Bft) SO 1,00 h 0,3 UV-I 5,1 C 19,0 C 3,1 km/h (1 Bft)
17.10.2011 14:00 13,8 C 12,6 C 12,6 C 18,6 C 18,6 C 4,8 C 57 % 65 % 100 % 1023,8 hPa 0,0 l/m 5,3 km/h (1 Bft) S 1,00 h 0,0 UV-I 5,5 C 18,6 C 8,1 km/h (2 Bft)
17.10.2011 15:00 15,7 C 12,7 C 18,5 C 18,4 C 18,4 C 2,7 C 53 % 50 % 71 % 1023,6 hPa 0,0 l/m 5,5 km/h (1 Bft) W-SW 0,25 h 0,0 UV-I 6,0 C 18,4 C 7,7 km/h (2 Bft)
17.10.2011 16:00 16,7 C 12,9 C 15,9 C 18,6 C 18,6 C 2,0 C 51 % 55 % 52 % 1023,3 hPa 0,0 l/m 2,0 km/h (1 Bft) W-SW 0,17 h 0,0 UV-I 6,6 C 18,6 C 2,6 km/h (1 Bft)
17.10.2011 17:00 13,8 C 13,1 C 12,6 C 16,2 C 16,2 C 2,4 C 59 % 67 % 63 % 1022,6 hPa 0,0 l/m 0,2 km/h (0 Bft) N 1,00 h 0,0 UV-I 5,8 C 16,2 C 0,2 km/h (0 Bft)
17.10.2011 18:00 10,1 C 13,3 C 9,9 C 9,8 C 9,0 C 0,1 C 73 % 77 % 1 % 1022,3 hPa 0,0 l/m 0,2 km/h (0 Bft) N 0,08 h 0,0 UV-I 5,5 C 9,0 C 0,2 km/h (0 Bft)
17.10.2011 19:00 7,5 C 13,6 C 8,0 C 7,1 C 6,3 C 0,0 C 82 % 83 % 0 % 1022,4 hPa 0,0 l/m 0,2 km/h (0 Bft) N 0,00 h 0,0 UV-I 4,6 C 6,3 C 0,4 km/h (0 Bft)
17.10.2011 20:00 6,2 C 13,8 C 7,0 C 6,0 C 5,5 C 0,0 C 86 % 86 % 0 % 1022,0 hPa 0,0 l/m 0,0 km/h (0 Bft) N 0,00 h 0,0 UV-I 4,0 C 5,5 C 0,0 km/h (0 Bft)
17.10.2011 21:00 5,5 C 13,8 C 6,4 C 5,3 C 5,0 C 0,0 C 88 % 88 % 0 % 1021,6 hPa 0,0 l/m 0,0 km/h (0 Bft) N 0,00 h 0,0 UV-I 3,6 C 5,0 C 0,0 km/h (0 Bft)
17.10.2011 22:00 5,3 C 13,7 C 6,6 C 5,5 C 5,5 C 0,2 C 89 % 89 % 0 % 1021,1 hPa 0,0 l/m 0,0 km/h (0 Bft) N 0,00 h 0,0 UV-I 3,7 C 5,5 C 0,3 km/h (0 Bft)
17.10.2011 23:00 4,8 C 13,8 C 5,9 C 4,8 C 4,6 C 0,0 C 90 % 89 % 0 % 1020,9 hPa 0,0 l/m 0,3 km/h (0 Bft) N 0,00 h 0,0 UV-I 3,3 C 4,6 C 0,2 km/h (0 Bft)
18.10.2011 00:00 4,5 C 13,8 C 5,6 C 4,4 C 4,0 C 0,0 C 90 % 89 % 0 % 1020,5 hPa 0,0 l/m 0,0 km/h (0 Bft) N 0,00 h 0,0 UV-I 3,1 C 4,0 C 0,0 km/h (0 Bft)
18.10.2011 01:00 3,6 C 13,7 C 5,0 C 3,3 C 2,9 C 0,0 C 90 % 90 % 0 % 1019,7 hPa 0,0 l/m 0,0 km/h (0 Bft) N 0,00 h 0,0 UV-I 2,1 C 2,9 C 0,0 km/h (0 Bft)
18.10.2011 02:00 3,4 C 13,7 C 4,6 C 3,2 C 2,7 C 0,0 C 91 % 90 % 0 % 1019,4 hPa 0,0 l/m 0,0 km/h (0 Bft) N 0,00 h 0,0 UV-I 2,0 C 2,7 C 0,0 km/h (0 Bft)
18.10.2011 03:00 3,9 C 13,6 C 5,0 C 3,9 C 3,8 C 0,1 C 92 % 91 % 0 % 1018,4 hPa 0,0 l/m 0,4 km/h (0 Bft) N 0,00 h 0,0 UV-I 2,7 C 3,8 C 2,0 km/h (1 Bft)
18.10.2011 04:00 4,5 C 13,5 C 5,5 C 4,5 C 4,4 C 0,0 C 92 % 91 % 0 % 1017,9 hPa 0,0 l/m 0,3 km/h (0 Bft) N 0,00 h 0,0 UV-I 3,4 C 4,4 C 0,1 km/h (0 Bft)
18.10.2011 05:00 4,5 C 13,5 C 5,5 C 4,4 C 4,1 C 0,0 C 92 % 91 % 0 % 1016,7 hPa 0,0 l/m 0,0 km/h (0 Bft) N 0,00 h 0,0 UV-I 3,4 C 4,1 C 0,0 km/h (0 Bft)
18.10.2011 06:00 4,2 C 13,6 C 5,1 C 4,2 C 4,0 C 0,0 C 92 % 91 % 0 % 1015,7 hPa 0,0 l/m 0,0 km/h (0 Bft) N 0,00 h 0,0 UV-I 3,1 C 4,0 C 0,0 km/h (0 Bft)
18.10.2011 07:00 3,6 C 13,5 C 4,6 C 3,6 C 3,4 C 0,0 C 92 % 91 % 1 % 1015,3 hPa 0,0 l/m 0,1 km/h (0 Bft) N 0,00 h 0,0 UV-I 2,4 C 3,4 C 0,0 km/h (0 Bft)
18.10.2011 08:00 4,7 C 13,5 C 5,6 C 5,8 C 5,8 C 1,1 C 93 % 93 % 29 % 1014,7 hPa 0,0 l/m 0,0 km/h (0 Bft) N 0,33 h 0,0 UV-I 3,6 C 5,8 C 0,0 km/h (0 Bft)
18.10.2011 09:00 8,5 C 13,1 C 8,9 C 9,9 C 9,9 C 1,4 C 94 % 93 % 37 % 1014,2 hPa 0,0 l/m 2,5 km/h (1 Bft) S 0,00 h 0,0 UV-I 7,6 C 9,9 C 5,5 km/h (1 Bft)
18.10.2011 10:00 12,7 C 13,1 C 12,2 C 14,1 C 14,1 C 1,3 C 85 % 86 % 35 % 1013,5 hPa 0,0 l/m 4,5 km/h (1 Bft) SO 0,00 h 0,0 UV-I 10,2 C 14,1 C 8,7 km/h (2 Bft)
18.10.2011 11:00 14,3 C 13,2 C 13,5 C 15,0 C 15,0 C 0,7 C 76 % 80 % 18 % 1012,8 hPa 0,0 l/m 5,4 km/h (1 Bft) SO 0,00 h 0,0 UV-I 10,0 C 15,0 C 6,9 km/h (2 Bft)
18.10.2011 12:00 16,1 C 13,3 C 15,2 C 19,0 C 19,0 C 2,9 C 69 % 74 % 74 % 1011,9 hPa 0,0 l/m 5,3 km/h (1 Bft) S 0,33 h 1,1 UV-I 10,5 C 19,0 C 7,4 km/h (2 Bft)
18.10.2011 13:00 17,7 C 13,6 C 16,6 C 21,3 C 21,3 C 3,6 C 61 % 67 % 88 % 1010,5 hPa 0,0 l/m 5,1 km/h (1 Bft) SO 0,75 h 1,6 UV-I 10,1 C 21,3 C 8,2 km/h (2 Bft)
18.10.2011 14:00 18,2 C 13,8 C 17,1 C 19,7 C 19,7 C 1,5 C 55 % 61 % 39 % 1010,3 hPa 0,0 l/m 7,0 km/h (2 Bft) S 0,00 h 0,0 UV-I 9,1 C 19,7 C 8,4 km/h (2 Bft)
18.10.2011 15:00 18,0 C 14,1 C 17,6 C 19,4 C 19,4 C 1,5 C 56 % 59 % 38 % 1009,8 hPa 0,0 l/m 6,2 km/h (2 Bft) W-SW 0,00 h 0,0 UV-I 9,0 C 19,4 C 10,0 km/h (2 Bft)
18.10.2011 16:00 18,0 C 14,3 C 17,4 C 19,5 C 19,5 C 1,5 C 56 % 59 % 40 % 1009,7 hPa 0,0 l/m 5,4 km/h (1 Bft) SO 0,17 h 0,0 UV-I 8,9 C 19,5 C 4,2 km/h (1 Bft)
18.10.2011 17:00 16,7 C 14,5 C 15,9 C 16,9 C 16,8 C 0,3 C 60 % 65 % 7 % 1009,4 hPa 0,0 l/m 1,7 km/h (1 Bft) S 0,08 h 0,0 UV-I 8,8 C 16,8 C 1,8 km/h (1 Bft)
18.10.2011 18:00 16,2 C 14,7 C 15,5 C 16,1 C 15,9 C 0,0 C 61 % 65 % 0 % 1009,5 hPa 0,0 l/m 3,5 km/h (1 Bft) S-SW 0,00 h 0,0 UV-I 8,6 C 15,9 C 5,1 km/h (1 Bft)
18.10.2011 19:00 13,5 C 14,9 C 13,1 C 13,3 C 12,8 C 0,0 C 67 % 71 % 0 % 1010,6 hPa 0,0 l/m 5,7 km/h (1 Bft) SW 0,00 h 0,0 UV-I 7,5 C 12,8 C 7,4 km/h (2 Bft)
18.10.2011 20:00 9,2 C 15,1 C 9,5 C 8,8 C 7,9 C 0,0 C 79 % 82 % 0 % 1012,4 hPa 0,7 l/m 4,8 km/h (1 Bft) W-SW 0,00 h 0,0 UV-I 5,7 C 7,4 C 5,2 km/h (1 Bft)
18.10.2011 21:00 7,7 C 15,5 C 8,0 C 7,6 C 7,3 C 0,0 C 86 % 89 % 0 % 1013,1 hPa 1,4 l/m 1,9 km/h (1 Bft) W 0,00 h 0,0 UV-I 5,4 C 7,3 C 2,7 km/h (1 Bft)
18.10.2011 22:00 7,5 C 15,4 C 7,6 C 7,4 C 7,2 C 0,0 C 88 % 93 % 0 % 1013,2 hPa 2,7 l/m 0,8 km/h (0 Bft) O-SO 0,00 h 0,0 UV-I 5,5 C 7,2 C 1,1 km/h (0 Bft)
18.10.2011 23:00 7,2 C 15,3 C 7,4 C 7,2 C 7,0 C 0,0 C 88 % 94 % 0 % 1013,1 hPa 1,4 l/m 2,1 km/h (1 Bft) S 0,00 h 0,0 UV-I 5,5 C 7,0 C 2,9 km/h (1 Bft)
19.10.2011 00:00 6,9 C 15,2 C 7,1 C 6,8 C 6,6 C 0,0 C 89 % 94 % 0 % 1013,3 hPa 0,0 l/m 0,6 km/h (0 Bft) SO 0,00 h 0,0 UV-I 5,1 C 6,6 C 1,0 km/h (0 Bft)
19.10.2011 01:00 6,8 C 15,0 C 7,1 C 6,7 C 6,5 C 0,0 C 89 % 95 % 0 % 1013,2 hPa 0,0 l/m 0,4 km/h (0 Bft) N 0,00 h 0,0 UV-I 5,2 C 6,5 C 1,4 km/h (1 Bft)
19.10.2011 02:00 6,7 C 14,9 C 7,1 C 6,6 C 6,4 C 0,0 C 90 % 95 % 0 % 1013,2 hPa 0,7 l/m 0,4 km/h (0 Bft) SW 0,00 h 0,0 UV-I 5,1 C 6,4 C 0,8 km/h (0 Bft)
19.10.2011 03:00 6,7 C 14,8 C 7,1 C 6,6 C 6,5 C 0,0 C 90 % 95 % 0 % 1013,1 hPa 0,0 l/m 0,2 km/h (0 Bft) N 0,00 h 0,0 UV-I 5,2 C 6,5 C 0,6 km/h (0 Bft)
19.10.2011 04:00 6,7 C 14,8 C 7,0 C 6,6 C 6,4 C 0,0 C 90 % 94 % 0 % 1013,0 hPa 0,0 l/m 0,2 km/h (0 Bft) N 0,00 h 0,0 UV-I 5,2 C 6,4 C 0,2 km/h (0 Bft)
19.10.2011 05:00 6,7 C 14,7 C 7,0 C 6,6 C 6,4 C 0,0 C 90 % 94 % 0 % 1012,9 hPa 0,0 l/m 0,3 km/h (0 Bft) N 0,00 h 0,0 UV-I 5,1 C 6,4 C 0,3 km/h (0 Bft)
19.10.2011 06:00 6,9 C 14,4 C 7,0 C 6,8 C 6,8 C 0,0 C 89 % 95 % 0 % 1013,1 hPa 0,0 l/m 2,0 km/h (1 Bft) SO 0,00 h 0,0 UV-I 5,2 C 6,8 C 3,7 km/h (1 Bft)
19.10.2011 07:00 7,0 C 14,3 C 6,8 C 6,9 C 6,7 C 0,0 C 85 % 94 % 0 % 1013,8 hPa 0,0 l/m 2,0 km/h (1 Bft) S 0,00 h 0,0 UV-I 4,7 C 6,7 C 4,1 km/h (1 Bft)
19.10.2011 08:00 6,8 C 14,2 C 6,7 C 6,7 C 6,6 C 0,0 C 86 % 94 % 0 % 1014,2 hPa 0,0 l/m 2,4 km/h (1 Bft) S-SO 0,00 h 0,0 UV-I 4,7 C 6,6 C 5,3 km/h (1 Bft)
19.10.2011 09:00 7,3 C 14,1 C 7,1 C 7,8 C 7,8 C 0,5 C 84 % 94 % 14 % 1014,8 hPa 0,0 l/m 2,8 km/h (1 Bft) SO 0,00 h 0,0 UV-I 4,8 C 7,8 C 4,9 km/h (1 Bft)
19.10.2011 10:00 8,0 C 13,9 C 7,8 C 8,4 C 8,3 C 0,4 C 82 % 93 % 11 % 1015,0 hPa 0,0 l/m 6,1 km/h (2 Bft) W-SW 0,00 h 0,0 UV-I 5,0 C 7,5 C 13,9 km/h (3 Bft)
19.10.2011 11:00 8,9 C 13,9 C 8,7 C 10,0 C 9,9 C 1,1 C 78 % 91 % 29 % 1015,1 hPa 0,0 l/m 5,8 km/h (2 Bft) W-SW 0,00 h 0,0 UV-I 5,2 C 9,4 C 8,5 km/h (2 Bft)
19.10.2011 12:00 9,3 C 13,9 C 9,2 C 10,6 C 10,4 C 1,2 C 76 % 87 % 33 % 1015,6 hPa 0,0 l/m 7,9 km/h (2 Bft) W-SW 0,00 h 0,2 UV-I 5,4 C 10,0 C 10,0 km/h (2 Bft)
19.10.2011 13:00 9,9 C 13,9 C 9,7 C 11,8 C 11,8 C 1,8 C 74 % 83 % 49 % 1015,5 hPa 0,0 l/m 6,3 km/h (2 Bft) SW 0,00 h 0,2 UV-I 5,5 C 11,8 C 8,2 km/h (2 Bft)
19.10.2011 14:00 10,2 C 13,9 C 10,0 C 11,2 C 11,2 C 1,0 C 71 % 78 % 27 % 1015,7 hPa 0,0 l/m 7,7 km/h (2 Bft) W-SW 0,00 h 0,2 UV-I 5,1 C 11,2 C 10,5 km/h (2 Bft)
19.10.2011 15:00 10,1 C 13,9 C 10,0 C 10,6 C 10,6 C 0,5 C 71 % 76 % 12 % 1016,1 hPa 0,0 l/m 6,9 km/h (2 Bft) SW 0,00 h 0,1 UV-I 5,1 C 10,4 C 9,1 km/h (2 Bft)
19.10.2011 16:00 9,8 C 13,9 C 9,7 C 9,8 C 9,6 C 0,0 C 71 % 76 % 0 % 1016,1 hPa 0,0 l/m 7,3 km/h (2 Bft) W-SW 0,00 h 0,0 UV-I 4,7 C 8,8 C 10,2 km/h (2 Bft)
19.10.2011 17:00 9,0 C 13,9 C 9,0 C 8,9 C 8,8 C 0,0 C 72 % 77 % 0 % 1016,4 hPa 0,0 l/m 3,8 km/h (1 Bft) SW 0,00 h 0,0 UV-I 4,3 C 8,6 C 4,4 km/h (1 Bft)
19.10.2011 18:00 7,9 C 13,9 C 8,2 C 7,7 C 7,3 C 0,0 C 76 % 80 % 0 % 1016,8 hPa 0,0 l/m 0,8 km/h (0 Bft) NO 0,00 h 0,0 UV-I 4,0 C 7,3 C 1,0 km/h (0 Bft)
19.10.2011 19:00 7,2 C 13,9 C 7,7 C 7,0 C 6,7 C 0,0 C 79 % 82 % 0 % 1017,3 hPa 0,0 l/m 1,0 km/h (0 Bft) S 0,00 h 0,0 UV-I 3,8 C 6,7 C 2,5 km/h (1 Bft)
19.10.2011 20:00 6,9 C 13,9 C 7,4 C 6,7 C 6,3 C 0,0 C 80 % 83 % 0 % 1018,5 hPa 0,0 l/m 1,7 km/h (1 Bft) W 0,00 h 0,0 UV-I 3,8 C 6,3 C 1,4 km/h (1 Bft)
19.10.2011 21:00 6,7 C 13,9 C 7,1 C 6,5 C 6,2 C 0,0 C 81 % 83 % 0 % 1018,9 hPa 0,0 l/m 2,6 km/h (1 Bft) W-SW 0,00 h 0,0 UV-I 3,6 C 6,0 C 3,7 km/h (1 Bft)
19.10.2011 22:00 6,4 C 13,9 C 6,8 C 6,1 C 5,6 C 0,0 C 81 % 83 % 0 % 1019,3 hPa 0,0 l/m 1,9 km/h (1 Bft) SO 0,00 h 0,0 UV-I 3,3 C 5,6 C 3,0 km/h (1 Bft)
19.10.2011 23:00 5,9 C 13,8 C 6,4 C 5,7 C 5,3 C 0,0 C 83 % 84 % 0 % 1019,7 hPa 0,0 l/m 1,8 km/h (1 Bft) S 0,00 h 0,0 UV-I 3,1 C 5,3 C 2,6 km/h (1 Bft)
20.10.2011 00:00 6,3 C 13,8 C 6,7 C 6,3 C 6,2 C 0,0 C 83 % 85 % 0 % 1019,7 hPa 0,0 l/m 2,3 km/h (1 Bft) SO 0,00 h 0,0 UV-I 3,6 C 6,2 C 4,3 km/h (1 Bft)
20.10.2011 01:00 6,1 C 13,7 C 6,6 C 6,0 C 5,7 C 0,0 C 83 % 85 % 0 % 1020,3 hPa 0,0 l/m 3,5 km/h (1 Bft) SW 0,00 h 0,0 UV-I 3,5 C 5,7 C 5,8 km/h (2 Bft)
20.10.2011 02:00 6,2 C 13,7 C 6,5 C 5,9 C 5,3 C 0,0 C 83 % 85 % 0 % 1020,3 hPa 0,0 l/m 5,0 km/h (1 Bft) W-SW 0,00 h 0,0 UV-I 3,5 C 4,6 C 7,3 km/h (2 Bft)
20.10.2011 03:00 6,0 C 13,6 C 6,4 C 5,6 C 4,9 C 0,0 C 83 % 85 % 0 % 1020,3 hPa 0,0 l/m 5,6 km/h (1 Bft) W-SW 0,00 h 0,0 UV-I 3,3 C 3,7 C 6,6 km/h (2 Bft)
20.10.2011 04:00 6,0 C 13,5 C 6,3 C 5,8 C 5,5 C 0,0 C 83 % 85 % 0 % 1021,0 hPa 0,0 l/m 4,4 km/h (1 Bft) W-SW 0,00 h 0,0 UV-I 3,2 C 4,9 C 5,8 km/h (2 Bft)
20.10.2011 05:00 5,9 C 13,5 C 6,3 C 5,9 C 5,8 C 0,0 C 82 % 85 % 0 % 1021,2 hPa 0,0 l/m 3,5 km/h (1 Bft) S 0,00 h 0,0 UV-I 3,1 C 5,6 C 7,1 km/h (2 Bft)
20.10.2011 06:00 5,9 C 13,4 C 6,3 C 5,7 C 5,4 C 0,0 C 83 % 85 % 0 % 1021,3 hPa 0,0 l/m 4,6 km/h (1 Bft) SW 0,00 h 0,0 UV-I 3,2 C 4,9 C 8,3 km/h (2 Bft)
20.10.2011 07:00 5,9 C 13,4 C 6,3 C 5,6 C 4,8 C 0,0 C 83 % 86 % 0 % 1021,9 hPa 0,0 l/m 6,1 km/h (2 Bft) W-SW 0,00 h 0,0 UV-I 3,3 C 3,5 C 8,7 km/h (2 Bft)
20.10.2011 08:00 5,9 C 13,4 C 6,3 C 5,5 C 4,6 C 0,0 C 83 % 86 % 0 % 1022,1 hPa 0,0 l/m 6,4 km/h (2 Bft) W-SW 0,00 h 0,0 UV-I 3,2 C 3,1 C 7,6 km/h (2 Bft)
20.10.2011 09:00 6,3 C 13,3 C 6,6 C 6,0 C 5,3 C 0,0 C 83 % 85 % 0 % 1022,5 hPa 0,0 l/m 6,7 km/h (2 Bft) SW 0,00 h 0,0 UV-I 3,6 C 3,8 C 8,3 km/h (2 Bft)
20.10.2011 10:00 7,3 C 13,2 C 7,4 C 7,2 C 6,5 C 0,0 C 78 % 82 % 0 % 1023,1 hPa 0,0 l/m 9,6 km/h (2 Bft) SW 0,00 h 0,0 UV-I 3,8 C 4,6 C 15,1 km/h (3 Bft)
20.10.2011 11:00 7,6 C 13,2 C 7,6 C 7,4 C 6,8 C 0,0 C 77 % 80 % 0 % 1023,5 hPa 0,0 l/m 8,1 km/h (2 Bft) W-SW 0,00 h 0,0 UV-I 3,9 C 5,2 C 10,6 km/h (2 Bft)
20.10.2011 12:00 7,0 C 13,2 C 7,1 C 7,4 C 6,8 C 0,6 C 80 % 83 % 15 % 1024,0 hPa 0,0 l/m 8,2 km/h (2 Bft) W-SW 0,00 h 0,0 UV-I 3,7 C 5,2 C 9,8 km/h (2 Bft)
20.10.2011 13:00 7,5 C 13,1 C 7,6 C 7,9 C 7,4 C 0,4 C 76 % 79 % 11 % 1024,4 hPa 0,0 l/m 7,0 km/h (2 Bft) W-SW 0,00 h 0,0 UV-I 3,5 C 6,3 C 7,9 km/h (2 Bft)
20.10.2011 14:00 8,7 C 13,1 C 8,6 C 11,4 C 11,3 C 2,7 C 71 % 75 % 71 % 1023,8 hPa 0,0 l/m 7,7 km/h (2 Bft) SW 0,50 h 0,0 UV-I 3,6 C 11,2 C 9,8 km/h (2 Bft)
20.10.2011 15:00 9,1 C 13,1 C 10,4 C 10,4 C 10,4 C 1,3 C 71 % 71 % 35 % 1024,0 hPa 0,0 l/m 6,3 km/h (2 Bft) W-SW 0,00 h 0,0 UV-I 4,1 C 10,2 C 10,2 km/h (2 Bft)
20.10.2011 16:00 9,6 C 13,1 C 8,9 C 11,0 C 10,9 C 1,4 C 66 % 71 % 36 % 1024,3 hPa 0,0 l/m 6,1 km/h (2 Bft) SW 0,00 h 0,0 UV-I 3,6 C 10,8 C 8,0 km/h (2 Bft)
20.10.2011 17:00 8,6 C 13,1 C 8,3 C 9,6 C 9,6 C 1,1 C 68 % 72 % 28 % 1025,0 hPa 0,0 l/m 4,1 km/h (1 Bft) W-SW 0,67 h 0,0 UV-I 2,9 C 9,5 C 5,1 km/h (1 Bft)
20.10.2011 18:00 6,9 C 13,1 C 7,3 C 6,7 C 6,1 C 0,0 C 73 % 77 % 0 % 1025,7 hPa 0,0 l/m 1,9 km/h (1 Bft) SW 0,00 h 0,0 UV-I 2,4 C 6,1 C 2,8 km/h (1 Bft)
20.10.2011 19:00 5,3 C 13,2 C 6,0 C 4,9 C 4,0 C 0,0 C 78 % 80 % 0 % 1026,2 hPa 0,0 l/m 0,6 km/h (0 Bft) N 0,00 h 0,0 UV-I 1,8 C 4,0 C 0,6 km/h (0 Bft)
20.10.2011 20:00 3,8 C 13,4 C 4,7 C 3,3 C 2,3 C 0,0 C 84 % 84 % 0 % 1027,2 hPa 0,0 l/m 0,0 km/h (0 Bft) N 0,00 h 0,0 UV-I 1,3 C 2,3 C 0,0 km/h (0 Bft)
20.10.2011 21:00 2,9 C 13,5 C 4,1 C 2,4 C 1,4 C 0,0 C 86 % 86 % 0 % 1027,6 hPa 0,0 l/m 0,0 km/h (0 Bft) N 0,00 h 0,0 UV-I 0,9 C 1,4 C 0,0 km/h (0 Bft)
20.10.2011 22:00 2,5 C 13,5 C 3,4 C 2,1 C 1,3 C 0,0 C 88 % 87 % 0 % 1028,1 hPa 0,0 l/m 0,1 km/h (0 Bft) N 0,00 h 0,0 UV-I 0,7 C 1,3 C 0,2 km/h (0 Bft)
20.10.2011 23:00 2,3 C 13,4 C 3,2 C 1,8 C 0,9 C 0,0 C 89 % 88 % 0 % 1028,4 hPa 0,0 l/m 0,0 km/h (0 Bft) N 0,00 h 0,0 UV-I 0,6 C 0,9 C 0,0 km/h (0 Bft)
21.10.2011 00:00 1,7 C 13,4 C 2,8 C 1,4 C 0,7 C 0,0 C 89 % 89 % 0 % 1028,6 hPa 0,0 l/m 0,0 km/h (0 Bft) N 0,00 h 0,0 UV-I 0,1 C 0,7 C 0,0 km/h (0 Bft)
21.10.2011 01:00 1,6 C 13,3 C 2,8 C 1,2 C 0,5 C 0,0 C 90 % 89 % 0 % 1028,7 hPa 0,0 l/m 0,0 km/h (0 Bft) N 0,00 h 0,0 UV-I 0,1 C 0,5 C 0,0 km/h (0 Bft)
21.10.2011 02:00 1,4 C 13,2 C 2,8 C 1,0 C 0,4 C 0,0 C 90 % 89 % 0 % 1029,1 hPa 0,0 l/m 0,0 km/h (0 Bft) N 0,00 h 0,0 UV-I -0,1 C 0,4 C 0,0 km/h (0 Bft)
21.10.2011 03:00 0,9 C 13,1 C 2,4 C 0,5 C -0,4 C 0,0 C 90 % 89 % 0 % 1029,1 hPa 0,0 l/m 0,0 km/h (0 Bft) N 0,00 h 0,0 UV-I -0,5 C -0,4 C 0,2 km/h (0 Bft)
21.10.2011 04:00 0,3 C 13,1 C 1,9 C -0,1 C -1,0 C 0,0 C 91 % 89 % 0 % 1029,3 hPa 0,0 l/m 0,0 km/h (0 Bft) N 0,00 h 0,0 UV-I -1,0 C -1,0 C 0,0 km/h (0 Bft)
21.10.2011 05:00 0,2 C 13,0 C 1,6 C -0,3 C -1,1 C 0,0 C 91 % 89 % 0 % 1029,7 hPa 0,0 l/m 0,0 km/h (0 Bft) N 0,00 h 0,0 UV-I -1,1 C -1,1 C 0,0 km/h (0 Bft)
21.10.2011 06:00 0,0 C 12,9 C 1,3 C -0,3 C -1,0 C 0,0 C 91 % 90 % 0 % 1029,5 hPa 0,0 l/m 0,0 km/h (0 Bft) N 0,00 h 0,0 UV-I -1,3 C -1,0 C 0,0 km/h (0 Bft)
21.10.2011 07:00 -0,6 C 12,7 C 1,0 C -1,0 C -1,9 C 0,0 C 91 % 90 % 0 % 1029,8 hPa 0,0 l/m 0,0 km/h (0 Bft) N 0,00 h 0,0 UV-I -1,9 C -1,9 C 0,0 km/h (0 Bft)
21.10.2011 08:00 -0,7 C 12,7 C 1,0 C -0,7 C -0,9 C 0,0 C 92 % 90 % 0 % 1030,3 hPa 0,0 l/m 0,0 km/h (0 Bft) N 0,00 h 0,0 UV-I -1,8 C -0,9 C 0,0 km/h (0 Bft)
21.10.2011 09:00 0,8 C 12,4 C 2,3 C 0,9 C 0,9 C 0,2 C 93 % 91 % 5 % 1030,5 hPa 0,0 l/m 0,0 km/h (0 Bft) N 0,00 h 0,0 UV-I -0,3 C 0,9 C 0,2 km/h (0 Bft)
21.10.2011 10:00 2,6 C 12,2 C 4,0 C 3,8 C 3,8 C 1,2 C 93 % 91 % 31 % 1030,7 hPa 0,0 l/m 1,5 km/h (1 Bft) SW 0,00 h 0,0 UV-I 1,6 C 3,8 C 2,5 km/h (1 Bft)
21.10.2011 11:00 4,8 C 12,0 C 5,7 C 6,3 C 6,3 C 1,5 C 93 % 89 % 40 % 1030,8 hPa 0,0 l/m 3,1 km/h (1 Bft) SW 0,00 h 0,0 UV-I 3,7 C 6,3 C 4,3 km/h (1 Bft)
21.10.2011 12:00 6,8 C 12,1 C 6,9 C 10,0 C 10,0 C 3,2 C 87 % 86 % 83 % 1030,5 hPa 0,0 l/m 2,6 km/h (1 Bft) SO 0,58 h 0,0 UV-I 4,7 C 10,0 C 5,1 km/h (1 Bft)
21.10.2011 13:00 8,1 C 12,1 C 7,9 C 12,1 C 12,1 C 4,1 C 79 % 81 % 91 % 1030,5 hPa 0,0 l/m 2,8 km/h (1 Bft) SO 0,70 h 0,0 UV-I 4,6 C 12,1 C 4,8 km/h (1 Bft)
21.10.2011 14:00 9,5 C 12,1 C 9,3 C 14,8 C 14,8 C 5,3 C 72 % 76 % 100 % 1029,9 hPa 0,0 l/m 4,0 km/h (1 Bft) W-SW 1,00 h 0,0 UV-I 4,7 C 14,8 C 5,2 km/h (1 Bft)
21.10.2011 15:00 10,9 C 12,2 C 13,6 C 13,8 C 13,8 C 2,9 C 66 % 61 % 72 % 1029,7 hPa 0,0 l/m 3,8 km/h (1 Bft) SW 0,33 h 0,0 UV-I 4,8 C 13,8 C 5,0 km/h (1 Bft)
21.10.2011 16:00 11,6 C 12,4 C 10,8 C 13,1 C 13,1 C 1,5 C 62 % 65 % 38 % 1029,5 hPa 0,0 l/m 2,5 km/h (1 Bft) W-SW 0,17 h 0,0 UV-I 4,7 C 13,1 C 3,3 km/h (1 Bft)
21.10.2011 17:00 9,3 C 12,5 C 8,8 C 10,9 C 10,9 C 1,6 C 67 % 73 % 42 % 1029,0 hPa 0,0 l/m 0,5 km/h (0 Bft) N 0,92 h 0,0 UV-I 3,6 C 10,9 C 0,6 km/h (0 Bft)
21.10.2011 18:00 6,0 C 12,7 C 6,7 C 5,5 C 4,4 C 0,0 C 77 % 80 % 0 % 1029,1 hPa 0,0 l/m 0,0 km/h (0 Bft) N 0,00 h 0,0 UV-I 2,3 C 4,4 C 0,0 km/h (0 Bft)
21.10.2011 19:00 3,7 C 12,9 C 4,9 C 3,1 C 2,0 C 0,0 C 84 % 85 % 0 % 1029,7 hPa 0,0 l/m 0,0 km/h (0 Bft) N 0,00 h 0,0 UV-I 1,3 C 2,0 C 0,0 km/h (0 Bft)
21.10.2011 20:00 2,4 C 13,0 C 3,7 C 1,8 C 0,6 C 0,0 C 87 % 87 % 0 % 1029,9 hPa 0,0 l/m 0,0 km/h (0 Bft) N 0,00 h 0,0 UV-I 0,4 C 0,6 C 0,0 km/h (0 Bft)
21.10.2011 21:00 1,4 C 13,0 C 2,9 C 0,9 C -0,1 C 0,0 C 88 % 87 % 0 % 1030,5 hPa 0,0 l/m 0,0 km/h (0 Bft) N 0,00 h 0,0 UV-I -0,4 C -0,1 C 0,0 km/h (0 Bft)
21.10.2011 22:00 0,6 C 13,0 C 2,2 C 0,1 C -0,9 C 0,0 C 89 % 88 % 0 % 1030,4 hPa 0,0 l/m 0,0 km/h (0 Bft) N 0,00 h 0,0 UV-I -1,0 C -0,9 C 0,0 km/h (0 Bft)
21.10.2011 23:00 -0,1 C 12,9 C 1,7 C -0,5 C -1,5 C 0,0 C 89 % 88 % 0 % 1030,6 hPa 0,0 l/m 0,0 km/h (0 Bft) N 0,00 h 0,0 UV-I -1,6 C -1,5 C 0,0 km/h (0 Bft)
22.10.2011 00:00 -0,9 C 12,7 C 1,1 C -1,4 C -2,3 C 0,0 C 90 % 88 % 0 % 1030,5 hPa 0,0 l/m 0,0 km/h (0 Bft) N 0,00 h 0,0 UV-I -2,3 C -2,3 C 0,0 km/h (0 Bft)
22.10.2011 01:00 -1,3 C 12,6 C 0,6 C -1,7 C -2,3 C 0,0 C 90 % 88 % 0 % 1030,7 hPa 0,0 l/m 0,0 km/h (0 Bft) N 0,00 h 0,0 UV-I -2,7 C -2,3 C 0,0 km/h (0 Bft)
22.10.2011 02:00 -1,7 C 12,5 C 0,4 C -2,1 C -2,9 C 0,0 C 90 % 89 % 0 % 1031,2 hPa 0,0 l/m 0,0 km/h (0 Bft) N 0,00 h 0,0 UV-I -3,1 C -2,9 C 0,0 km/h (0 Bft)
22.10.2011 03:00 -2,1 C 12,4 C 0,0 C -2,5 C -3,2 C 0,0 C 91 % 89 % 0 % 1030,6 hPa 0,0 l/m 0,0 km/h (0 Bft) N 0,00 h 0,0 UV-I -3,4 C -3,2 C 0,0 km/h (0 Bft)
22.10.2011 04:00 -2,1 C 12,3 C -0,2 C -2,5 C -3,3 C 0,0 C 91 % 89 % 0 % 1030,7 hPa 0,0 l/m 0,0 km/h (0 Bft) N 0,00 h 0,0 UV-I -3,4 C -3,3 C 0,0 km/h (0 Bft)
22.10.2011 05:00 -2,5 C 12,1 C -0,4 C -2,8 C -3,6 C 0,0 C 91 % 89 % 0 % 1031,0 hPa 0,0 l/m 0,0 km/h (0 Bft) N 0,00 h 0,0 UV-I -3,7 C -3,6 C 0,0 km/h (0 Bft)
22.10.2011 06:00 -2,6 C 12,0 C -0,5 C -3,0 C -3,7 C 0,0 C 91 % 89 % 0 % 1030,6 hPa 0,0 l/m 0,0 km/h (0 Bft) N 0,00 h 0,0 UV-I -3,9 C -3,7 C 0,0 km/h (0 Bft)
22.10.2011 07:00 -2,8 C 11,8 C -0,7 C -3,2 C -4,0 C 0,0 C 91 % 89 % 0 % 1030,7 hPa 0,0 l/m 0,0 km/h (0 Bft) N 0,00 h 0,0 UV-I -4,1 C -4,0 C 0,0 km/h (0 Bft)
22.10.2011 08:00 -2,8 C 11,7 C -0,7 C -3,1 C -3,5 C 0,0 C 91 % 89 % 0 % 1030,6 hPa 0,0 l/m 0,0 km/h (0 Bft) N 0,00 h 0,0 UV-I -4,0 C -3,5 C 0,0 km/h (0 Bft)
22.10.2011 09:00 -1,4 C 11,7 C 0,4 C -1,3 C -1,3 C 0,2 C 92 % 90 % 5 % 1030,6 hPa 0,0 l/m 0,0 km/h (0 Bft) N 0,00 h 0,0 UV-I -2,5 C -1,3 C 0,0 km/h (0 Bft)
22.10.2011 10:00 1,0 C 11,4 C 2,3 C 1,3 C 1,2 C 0,2 C 93 % 91 % 6 % 1030,2 hPa 0,0 l/m 0,3 km/h (0 Bft) N 0,00 h 0,0 UV-I 0,0 C 1,2 C 0,8 km/h (0 Bft)
22.10.2011 11:00 4,1 C 11,3 C 4,4 C 5,5 C 5,5 C 1,4 C 91 % 87 % 36 % 1029,9 hPa 0,0 l/m 1,2 km/h (1 Bft) O-NO 0,00 h 0,0 UV-I 2,7 C 5,5 C 2,9 km/h (1 Bft)
22.10.2011 12:00 7,7 C 11,2 C 6,7 C 12,3 C 12,3 C 4,6 C 72 % 79 % 88 % 1029,6 hPa 0,0 l/m 2,2 km/h (1 Bft) O-NO 0,73 h 0,0 UV-I 3,0 C 12,3 C 4,2 km/h (1 Bft)
22.10.2011 13:00 9,1 C 11,3 C 8,3 C 13,7 C 13,7 C 4,6 C 62 % 71 % 99 % 1028,7 hPa 0,0 l/m 4,3 km/h (1 Bft) O-NO 1,00 h 0,0 UV-I 2,1 C 13,7 C 6,5 km/h (2 Bft)
22.10.2011 14:00 9,5 C 11,4 C 9,0 C 13,3 C 13,3 C 3,8 C 57 % 66 % 96 % 1028,1 hPa 0,0 l/m 5,4 km/h (1 Bft) O-NO 0,92 h 0,0 UV-I 1,5 C 13,3 C 7,7 km/h (2 Bft)
22.10.2011 15:00 9,8 C 11,5 C 13,3 C 13,7 C 13,7 C 3,9 C 56 % 54 % 98 % 1028,0 hPa 0,0 l/m 4,5 km/h (1 Bft) O-NO 1,00 h 0,0 UV-I 1,5 C 13,7 C 6,9 km/h (2 Bft)
22.10.2011 16:00 9,5 C 11,7 C 10,5 C 12,2 C 12,2 C 2,7 C 57 % 58 % 70 % 1027,2 hPa 0,0 l/m 5,3 km/h (1 Bft) O-NO 1,00 h 0,0 UV-I 1,4 C 12,2 C 5,2 km/h (1 Bft)
22.10.2011 17:00 8,4 C 11,8 C 8,3 C 9,3 C 9,2 C 0,9 C 59 % 64 % 23 % 1027,1 hPa 0,0 l/m 5,3 km/h (1 Bft) O-NO 0,67 h 0,0 UV-I 0,9 C 9,0 C 7,2 km/h (2 Bft)
22.10.2011 18:00 6,5 C 11,8 C 6,4 C 6,1 C 5,2 C 0,0 C 66 % 70 % 0 % 1026,8 hPa 0,0 l/m 3,8 km/h (1 Bft) O-NO 0,00 h 0,0 UV-I 0,7 C 5,2 C 4,3 km/h (1 Bft)
22.10.2011 19:00 4,5 C 12,0 C 4,7 C 3,9 C 2,8 C 0,0 C 71 % 74 % 0 % 1026,7 hPa 0,0 l/m 0,5 km/h (0 Bft) N 0,00 h 0,0 UV-I -0,4 C 2,8 C 0,6 km/h (0 Bft)
22.10.2011 20:00 2,6 C 11,9 C 3,4 C 2,0 C 0,8 C 0,0 C 76 % 78 % 0 % 1026,8 hPa 0,0 l/m 0,1 km/h (0 Bft) N 0,00 h 0,0 UV-I -1,2 C 0,8 C 0,0 km/h (0 Bft)
22.10.2011 21:00 1,3 C 11,9 C 2,4 C 0,7 C -0,5 C 0,0 C 80 % 81 % 0 % 1026,8 hPa 0,0 l/m 0,1 km/h (0 Bft) N 0,00 h 0,0 UV-I -1,7 C -0,5 C 0,5 km/h (0 Bft)
22.10.2011 22:00 0,2 C 12,0 C 1,5 C -0,3 C -1,4 C 0,0 C 83 % 83 % 0 % 1026,8 hPa 0,0 l/m 0,1 km/h (0 Bft) N 0,00 h 0,0 UV-I -2,3 C -1,4 C 0,0 km/h (0 Bft)
22.10.2011 23:00 -0,8 C 12,0 C 0,9 C -1,3 C -2,4 C 0,0 C 85 % 85 % 0 % 1026,2 hPa 0,0 l/m 0,0 km/h (0 Bft) N 0,00 h 0,0 UV-I -2,9 C -2,4 C 0,0 km/h (0 Bft)
23.10.2011 00:00 -1,3 C 11,9 C 0,4 C -1,8 C -2,9 C 0,0 C 87 % 86 % 0 % 1026,3 hPa 0,0 l/m 0,0 km/h (0 Bft) N 0,00 h 0,0 UV-I -3,2 C -2,9 C 0,0 km/h (0 Bft)
23.10.2011 01:00 -2,0 C 11,8 C -0,1 C -2,5 C -3,5 C 0,0 C 88 % 87 % 0 % 1025,8 hPa 0,0 l/m 0,0 km/h (0 Bft) N 0,00 h 0,0 UV-I -3,7 C -3,5 C 0,0 km/h (0 Bft)
23.10.2011 02:00 -2,2 C 11,8 C -0,5 C -2,6 C -3,5 C 0,0 C 89 % 87 % 0 % 1025,7 hPa 0,0 l/m 0,0 km/h (0 Bft) N 0,00 h 0,0 UV-I -3,7 C -3,5 C 0,0 km/h (0 Bft)
23.10.2011 03:00 -2,5 C 11,6 C -0,8 C -2,9 C -3,7 C 0,0 C 89 % 87 % 0 % 1025,5 hPa 0,0 l/m 0,0 km/h (0 Bft) N 0,00 h 0,0 UV-I -4,0 C -3,7 C 0,0 km/h (0 Bft)
23.10.2011 04:00 -2,8 C 11,5 C -0,9 C -3,1 C -3,9 C 0,0 C 90 % 88 % 0 % 1025,3 hPa 0,0 l/m 0,0 km/h (0 Bft) N 0,00 h 0,0 UV-I -4,2 C -3,9 C 0,0 km/h (0 Bft)
23.10.2011 05:00 -3,0 C 11,4 C -1,0 C -3,4 C -4,2 C 0,0 C 90 % 88 % 0 % 1025,3 hPa 0,0 l/m 0,0 km/h (0 Bft) N 0,00 h 0,0 UV-I -4,4 C -4,2 C 0,0 km/h (0 Bft)
23.10.2011 06:00 -3,6 C 11,3 C -1,3 C -4,0 C -4,7 C 0,0 C 90 % 88 % 0 % 1025,4 hPa 0,0 l/m 0,0 km/h (0 Bft) N 0,00 h 0,0 UV-I -5,0 C -4,7 C 0,0 km/h (0 Bft)
23.10.2011 07:00 -3,7 C 11,2 C -1,6 C -4,0 C -4,6 C 0,0 C 90 % 88 % 0 % 1025,1 hPa 0,0 l/m 0,0 km/h (0 Bft) N 0,00 h 0,0 UV-I -5,1 C -4,6 C 0,0 km/h (0 Bft)
23.10.2011 08:00 -3,6 C 11,0 C -1,4 C -3,8 C -4,2 C 0,0 C 91 % 88 % 0 % 1024,9 hPa 0,0 l/m 0,0 km/h (0 Bft) N 0,00 h 0,0 UV-I -4,9 C -4,2 C 0,0 km/h (0 Bft)
23.10.2011 09:00 -2,8 C 10,9 C -0,7 C -2,4 C -2,4 C 0,4 C 91 % 89 % 11 % 1025,6 hPa 0,0 l/m 0,0 km/h (0 Bft) N 0,00 h 0,0 UV-I -4,0 C -2,4 C 0,0 km/h (0 Bft)
23.10.2011 10:00 -1,0 C 10,8 C 1,1 C 0,1 C 0,1 C 1,1 C 92 % 90 % 28 % 1025,4 hPa 0,0 l/m 0,3 km/h (0 Bft) N 0,00 h 0,0 UV-I -2,1 C 0,1 C 0,7 km/h (0 Bft)
23.10.2011 11:00 4,4 C 10,6 C 4,6 C 5,9 C 5,9 C 1,5 C 90 % 89 % 39 % 1025,3 hPa 0,0 l/m 2,6 km/h (1 Bft) O-NO 0,00 h 0,0 UV-I 2,8 C 5,8 C 4,8 km/h (1 Bft)
23.10.2011 12:00 9,3 C 10,6 C 8,1 C 12,8 C 12,8 C 3,5 C 68 % 77 % 79 % 1025,0 hPa 0,0 l/m 4,1 km/h (1 Bft) O-NO 0,58 h 0,2 UV-I 3,6 C 12,7 C 6,0 km/h (2 Bft)
23.10.2011 13:00 10,9 C 10,7 C 9,8 C 14,8 C 14,8 C 3,9 C 59 % 69 % 95 % 1024,1 hPa 0,0 l/m 4,2 km/h (1 Bft) O-NO 0,92 h 0,0 UV-I 3,3 C 14,8 C 7,9 km/h (2 Bft)
23.10.2011 14:00 11,8 C 10,8 C 11,0 C 15,1 C 15,1 C 3,3 C 56 % 64 % 87 % 1023,6 hPa 0,0 l/m 6,5 km/h (2 Bft) O-NO 0,68 h 0,0 UV-I 3,4 C 15,1 C 9,6 km/h (2 Bft)
23.10.2011 15:00 11,8 C 11,0 C 14,8 C 14,6 C 14,6 C 2,8 C 57 % 54 % 75 % 1023,4 hPa 0,0 l/m 7,2 km/h (2 Bft) O-NO 0,00 h 0,0 UV-I 3,6 C 14,6 C 8,9 km/h (2 Bft)
23.10.2011 16:00 10,7 C 11,2 C 11,5 C 12,6 C 12,3 C 1,9 C 61 % 61 % 50 % 1023,2 hPa 0,0 l/m 8,1 km/h (2 Bft) O-NO 0,25 h 0,0 UV-I 3,4 C 12,2 C 11,1 km/h (2 Bft)
23.10.2011 17:00 7,8 C 11,4 C 8,1 C 7,7 C 7,2 C 0,1 C 72 % 73 % 3 % 1023,3 hPa 0,0 l/m 8,0 km/h (2 Bft) O-NO 0,00 h 0,0 UV-I 3,1 C 5,7 C 10,5 km/h (2 Bft)
23.10.2011 18:00 7,2 C 11,6 C 7,2 C 6,8 C 5,8 C 0,0 C 76 % 78 % 0 % 1022,9 hPa 0,0 l/m 6,1 km/h (2 Bft) O-NO 0,00 h 0,0 UV-I 3,3 C 4,6 C 7,1 km/h (2 Bft)
23.10.2011 19:00 7,1 C 11,6 C 7,0 C 7,0 C 6,6 C 0,0 C 77 % 80 % 0 % 1023,1 hPa 0,0 l/m 2,6 km/h (1 Bft) O-NO 0,00 h 0,0 UV-I 3,4 C 6,5 C 3,1 km/h (1 Bft)
23.10.2011 20:00 6,6 C 11,7 C 6,3 C 6,2 C 5,5 C 0,0 C 79 % 82 % 0 % 1022,8 hPa 0,0 l/m 2,5 km/h (1 Bft) O-NO 0,00 h 0,0 UV-I 3,2 C 5,4 C 2,8 km/h (1 Bft)
23.10.2011 21:00 4,9 C 11,9 C 5,2 C 4,5 C 3,6 C 0,0 C 82 % 84 % 0 % 1022,7 hPa 0,0 l/m 0,3 km/h (0 Bft) N-NO 0,00 h 0,0 UV-I 2,1 C 3,6 C 0,6 km/h (0 Bft)
23.10.2011 22:00 4,6 C 11,9 C 4,7 C 4,3 C 3,7 C 0,0 C 85 % 86 % 0 % 1022,3 hPa 0,0 l/m 0,7 km/h (0 Bft) O-SO 0,00 h 0,0 UV-I 2,3 C 3,7 C 1,3 km/h (1 Bft)
23.10.2011 23:00 6,5 C 11,8 C 6,0 C 6,3 C 6,0 C 0,0 C 85 % 88 % 0 % 1021,9 hPa 0,0 l/m 2,1 km/h (1 Bft) N-NO 0,00 h 0,0 UV-I 4,2 C 6,0 C 3,9 km/h (1 Bft)
Min-Datum _ 23.10.11 23.10.11 23.10.11 23.10.11 23.10.11 17.10.11 17.10.11 17.10.11 17.10.11 18.10.11 - 17.10.11 - - 17.10.11 23.10.11 23.10.11 17.10.11
_ Min-Zeit 07:25 12:25 07:25 06:30 06:45 00:00 16:20 16:00 00:00 17:00 - 00:00 - - 00:00 07:25 06:45 00:00
Minimum _ -3,9 C 10,5 C -1,7 C -4,1 C -4,9 C 0,0 C 50 % 46 % 0 % 1009,2 hPa - 0,0 km/h (0 Bft) - - 0,0 UV-I -5,3 C -4,9 C 0,0 km/h (0 Bft)
Max-Datum _ 18.10.11 18.10.11 17.10.11 18.10.11 18.10.11 17.10.11 18.10.11 19.10.11 17.10.11 22.10.11 18.10.11 20.10.11 - 21.10.11 18.10.11 18.10.11 18.10.11 20.10.11
_ Max-Zeit 14:15 21:00 16:00 13:30 13:30 13:20 08:55 01:30 12:20 02:20 22:10 11:00 - 13:12 13:10 13:00 13:30 10:55
Maximum _ 18,5 C 15,6 C 19,9 C 23,0 C 23,0 C 7,3 C 94 % 95 % 100 % 1031,7 hPa 2,7 l/m 12,2 km/h
W-SW (2 Bft)
- 0,20 h 3,2 UV-I 10,7 C 23,0 C 29,6 km/h
SW (5 Bft)
Durchschnitt _ 5,5 C 12,9 C 6,2 C 6,0 C 5,6 C 0,7 C 81 % 83 % 17 % 1022,9 hPa #6,9 l/m 2,2 km/h (1 Bft) W-SW #18:27 h 0,5 UV-I 2,3 C 5,5 C 3,2 km/h (1 Bft)
2011 www.wetterstation-wechselburg.de